South Bethlehem, NY (12161)

5:50 AM EST on January 22, 2017 (GMT -0500)
Callanan's Corners | | Change Station
Active Advisory: Special Statement

Elev 387 ft 42.53 °N, 73.89 °W | Updated 6 minutes ago

Fog
Fog
39.6 °F
Feels Like 40 °F
N
0.0
Wind Variable Wind from SW
Gusts 0.0 mph

Today
High -- | Low -- °F
--% Chance of Precip.
Yesterday
High -- | Low -- °F
Precip. -- in
Pressure 29.74 in
Visibility 1.0 miles
Clouds Overcast 400 ft
Windchill 40 °F
Dew Point 39 °F
Humidity 97%
Rainfall 0.00 in
Snow Depth Not available.
7:18 AM 4:56 PM
Waning Crescent, 27% visible
SPECI KALB 221040Z 02003KT 1SM R01/P6000FT BR BCFG OVC004 04/02 A2974 RMK AO2 TWR VIS 2 BCFG ALQDS T00390022
Pressure 29.74 in
Visibility 1.0 miles
Clouds Overcast 400 ft
Windchill 40 °F
Dew Point 39 °F
Humidity 97%
Rainfall 0.00 in
Snow Depth Not available.
7:18 AM 4:56 PM
Waning Crescent, 27% visible
SPECI KALB 221040Z 02003KT 1SM R01/P6000FT BR BCFG OVC004 04/02 A2974 RMK AO2 TWR VIS 2 BCFG ALQDS T00390022

Get Your Daily Forecast Email!

Thanks for signing up!

Be on the lookout for a verification email in your inbox.

You'll start receiving the daily forecast at 8 AM.

×

10-Day Weather Forecast

Almanac

Astronomy

Jan. 22, 2017 Rise Set
Actual Time
Civil Twilight
Nautical Twilight
Astronomical Twilight
Moon
Length of Visible Light
Length of Day
Tomorrow will be .
, % of the Moon is Illuminated

Today's Extremes

State Highs State Lows

Community

WunderPhotos

Upload Photos

1,962,540 photos uploaded!

WunderBlog® & News

Nearby

Air Quality

  Air Quality AQ Index Pollutant
Not available.

Snow Depth

Station Depth Elevation

Earthquake Activity

City Distance Mag. Time & Date
Minimum magnitude displayed is 2.5.

Coastal Water Temperatures

Place Temperature

Stations

Nearby Weather Stations

Station Location Temp. Windchill Dew Point Humidity Wind Precip. Elev Updated Type
                   

Watches & Warnings

Special Statement
Issued: 12:00 AM EST Jan. 22, 2017 – National Weather Service

... Areas of dense fog overnight...

Patchy to areas of dense fog are likely overnight. The dense fog
should be most concentrated across western New England, but may
occur anywhere in eastern New York and western New England. The
visibility could be reduced to less than a half mile at times. If
traveling, be aware for quickly changing visibility, reduce your
speed, and use low beams.


1200 am EST sun Jan 22 2017

... Areas of dense fog overnight...

Patchy to areas of dense fog are likely overnight. The dense fog
should be most concentrated across western New England, but may
occur anywhere in eastern New York and western New England. The
visibility could be reduced to less than a half mile at times. If
traveling, be aware for quickly changing visibility, reduce your
speed, and use low beams.